Time;durP1;ratioP1;P1;durP2;ratioP2;P2;SDS_P1;SDS_P2;PMS_P1;PMS_P2;Temp;Humidity;BMP_temperature;BMP_pressure;BME280_temperature;BME280_humidity;BME280_pressure;Samples;Min_cycle;Max_cycle;Signal;HPM_P1;HPM_P2
2023/03/31 00:00:13;;;;;;;3.83;3.20;;;;;;;11.82;43.68;99573.19;5051148;28;20227;-67
2023/03/31 00:02:40;;;;;;;3.73;3.43;;;;;;;11.81;43.30;99582.19;5051064;28;20747;-68
2023/03/31 00:05:08;;;;;;;5.73;3.23;;;;;;;11.75;43.48;99572.34;5051249;28;20230;-67
2023/03/31 00:07:36;;;;;;;3.50;3.20;;;;;;;11.72;43.79;99567.41;5051358;28;20259;-67
2023/03/31 00:10:04;;;;;;;8.03;3.37;;;;;;;11.74;44.06;99570.72;5061942;28;20194;-68
2023/03/31 00:12:32;;;;;;;4.10;3.70;;;;;;;11.75;43.57;99572.34;5071294;28;20192;-67
2023/03/31 00:14:59;;;;;;;4.00;3.60;;;;;;;11.78;43.54;99565.78;5072934;28;20282;-68
2023/03/31 00:17:25;;;;;;;3.87;3.27;;;;;;;11.82;43.32;99572.34;5072596;28;20192;-67
2023/03/31 00:19:52;;;;;;;3.70;3.50;;;;;;;11.82;43.71;99561.72;5067810;28;20273;-67
2023/03/31 00:22:21;;;;;;;3.47;3.17;;;;;;;11.82;44.84;99562.53;5055070;28;20199;-68
2023/03/31 00:24:47;;;;;;;3.60;3.33;;;;;;;11.85;45.21;99558.66;5056035;28;20196;-67
2023/03/31 00:27:14;;;;;;;3.37;3.17;;;;;;;11.76;45.74;99563.31;5071525;28;20856;-67
2023/03/31 00:29:44;;;;;;;4.23;3.40;;;;;;;11.71;45.66;99564.97;5074914;28;20198;-67
2023/03/31 00:32:13;;;;;;;3.90;3.60;;;;;;;11.69;45.45;99561.69;5074723;28;20217;-67
2023/03/31 00:34:40;;;;;;;4.30;3.90;;;;;;;11.68;45.52;99563.50;5074220;28;20567;-67
2023/03/31 00:37:08;;;;;;;4.63;3.73;;;;;;;11.67;45.85;99558.41;5074637;28;20199;-67
2023/03/31 00:39:36;;;;;;;3.70;3.50;;;;;;;11.58;45.70;99555.06;5072167;28;20226;-67
2023/03/31 00:42:04;;;;;;;3.90;3.53;;;;;;;11.58;45.03;99551.59;5072397;28;20197;-67
2023/03/31 00:44:33;;;;;;;4.17;3.77;;;;;;;11.58;45.34;99549.75;5074041;28;20192;-67
2023/03/31 00:47:05;;;;;;;4.13;3.83;;;;;;;11.52;45.31;99547.09;5074182;28;20194;-68
2023/03/31 00:49:35;;;;;;;4.10;3.87;;;;;;;11.52;45.15;99544.41;5074109;28;20608;-68
2023/03/31 00:52:07;;;;;;;8.07;4.27;;;;;;;11.52;45.25;99534.63;5074215;28;20194;-68
2023/03/31 00:54:36;;;;;;;4.70;4.40;;;;;;;11.55;45.33;99536.84;5074287;28;20184;-68
2023/03/31 00:57:05;;;;;;;7.27;3.80;;;;;;;11.53;46.10;99541.56;5074298;28;20194;-68
2023/03/31 00:59:37;;;;;;;4.10;3.80;;;;;;;11.48;46.79;99538.69;5074073;28;20634;-68
2023/03/31 01:02:05;;;;;;;4.30;4.00;;;;;;;11.40;47.00;99541.53;5073855;28;20186;-67
2023/03/31 01:04:36;;;;;;;4.33;4.03;;;;;;;11.31;47.42;99531.28;5074005;28;20191;-66
2023/03/31 01:07:11;;;;;;;4.53;4.23;;;;;;;11.26;48.11;99539.84;5074148;28;20260;-66
2023/03/31 01:09:40;;;;;;;6.37;4.70;;;;;;;11.22;48.57;99537.78;5062016;28;20219;-68
2023/03/31 01:12:09;;;;;;;4.93;4.43;;;;;;;11.16;48.60;99536.75;5053835;28;20286;-67
2023/03/31 01:14:36;;;;;;;6.00;3.23;;;;;;;11.13;49.10;99541.63;5053466;28;20195;-67
2023/03/31 01:17:03;;;;;;;4.30;3.97;;;;;;;11.07;48.98;99548.56;5053339;28;20195;-68
2023/03/31 01:19:46;;;;;;;7.50;4.40;;;;;;;11.00;49.12;99539.72;5071619;28;20233;-68
2023/03/31 01:22:44;;;;;;;4.53;4.13;;;;;;;10.94;49.47;99545.81;5073913;28;20189;-67
2023/03/31 01:25:43;;;;;;;5.93;4.30;;;;;;;10.93;49.87;99549.50;5044905;28;20575;-67
2023/03/31 01:28:33;;;;;;;5.27;4.23;;;;;;;10.80;49.38;99549.44;5059527;28;20233;-67
2023/03/31 01:31:38;;;;;;;4.10;3.80;;;;;;;10.62;50.82;99546.47;5073617;28;20189;-67
2023/03/31 01:34:52;;;;;;;4.47;4.10;;;;;;;10.44;51.35;99549.63;5067362;28;20201;-67
2023/03/31 01:37:37;;;;;;;7.83;3.93;;;;;;;10.39;51.47;99545.91;5066386;28;20660;-66
2023/03/31 01:40:37;;;;;;;4.47;4.03;;;;;;;10.33;51.92;99530.72;5058451;28;20201;-66
2023/03/31 01:43:10;;;;;;;4.40;4.00;;;;;;;10.34;52.23;99527.09;5050955;28;20189;-66
2023/03/31 01:45:49;;;;;;;4.33;4.03;;;;;;;10.35;51.90;99512.78;5052966;28;20189;-66
2023/03/31 01:48:20;;;;;;;5.83;4.97;;;;;;;10.31;52.60;99511.53;5053055;28;20600;-66
2023/03/31 01:50:51;;;;;;;8.07;5.30;;;;;;;10.36;52.71;99519.72;5053165;28;20197;-66
2023/03/31 01:53:25;;;;;;;6.87;4.90;;;;;;;10.35;53.14;99512.78;5068240;28;20236;-66
2023/03/31 01:56:02;;;;;;;6.73;4.53;;;;;;;10.34;52.41;99519.91;5073173;28;20189;-66
2023/03/31 01:58:35;;;;;;;11.57;4.50;;;;;;;10.29;53.56;99518.84;5073150;28;20242;-66
2023/03/31 02:01:10;;;;;;;6.33;4.13;;;;;;;10.29;53.66;99508.22;5072568;28;20204;-66
2023/03/31 02:03:43;;;;;;;8.67;4.47;;;;;;;10.26;53.55;99508.66;5073049;28;20185;-66
2023/03/31 02:06:14;;;;;;;6.33;5.13;;;;;;;10.20;52.94;99515.53;5072810;28;20184;-66
2023/03/31 02:08:46;;;;;;;6.23;4.60;;;;;;;10.11;53.77;99507.91;5069184;28;20204;-66
2023/03/31 02:11:13;;;;;;;7.53;4.47;;;;;;;10.11;53.39;99495.47;5052521;28;20192;-66
2023/03/31 02:13:46;;;;;;;4.80;4.43;;;;;;;10.09;53.98;99496.69;5052763;28;20201;-66
2023/03/31 02:16:20;;;;;;;9.40;4.77;;;;;;;9.95;54.16;99494.88;5052623;28;20262;-66
2023/03/31 02:18:49;;;;;;;8.47;4.87;;;;;;;9.84;53.88;99487.44;5067901;28;20193;-66
2023/03/31 02:21:17;;;;;;;12.20;5.43;;;;;;;9.77;54.55;99491.88;5072448;28;20285;-66
2023/03/31 02:23:45;;;;;;;7.83;4.73;;;;;;;9.68;55.46;99482.44;5072349;28;20195;-68
2023/03/31 02:26:16;;;;;;;11.00;5.87;;;;;;;9.58;55.32;99492.50;5062821;28;20342;-65
2023/03/31 02:28:44;;;;;;;14.63;5.83;;;;;;;9.40;55.95;99490.28;5052317;28;20184;-65
2023/03/31 02:31:25;;;;;;;17.77;6.53;;;;;;;9.31;56.74;99490.63;5052047;28;20204;-65
2023/03/31 02:33:52;;;;;;;14.63;6.00;;;;;;;9.21;56.83;99479.50;5052173;28;20235;-66
2023/03/31 02:36:21;;;;;;;11.57;6.27;;;;;;;9.13;56.28;99485.75;5052238;28;20242;-65
2023/03/31 02:38:52;;;;;;;13.13;5.60;;;;;;;9.04;57.06;99491.31;5054443;28;20223;-66
2023/03/31 02:41:19;;;;;;;10.70;5.63;;;;;;;8.89;57.88;99495.81;5072159;28;20645;-66
2023/03/31 02:43:47;;;;;;;10.60;6.33;;;;;;;8.79;57.69;99492.66;5072236;28;20208;-67
2023/03/31 02:46:14;;;;;;;11.80;5.63;;;;;;;8.78;58.31;99502.41;5071821;28;20626;-67
2023/03/31 02:48:45;;;;;;;10.00;6.87;;;;;;;8.84;58.87;99498.22;5070482;28;20255;-67
2023/03/31 02:51:32;;;;;;;29.30;6.80;;;;;;;8.87;58.46;99498.66;5072163;28;20188;-66
2023/03/31 02:54:24;;;;;;;18.60;6.37;;;;;;;8.91;57.99;99502.56;5072277;28;20183;-66
2023/03/31 02:57:12;;;;;;;13.83;5.83;;;;;;;8.96;57.76;99502.03;5071078;28;20203;-66
2023/03/31 02:59:52;;;;;;;12.60;5.83;;;;;;;8.97;58.17;99501.84;5072085;28;20191;-66
2023/03/31 03:02:30;;;;;;;12.03;6.03;;;;;;;8.96;58.17;99499.38;5071882;28;20215;-66
2023/03/31 03:05:19;;;;;;;6.83;5.20;;;;;;;8.91;57.22;99499.13;5071568;28;20644;-66
2023/03/31 03:07:53;;;;;;;6.10;5.70;;;;;;;8.90;57.42;99498.28;5072005;28;20192;-66
2023/03/31 03:10:29;;;;;;;6.43;5.97;;;;;;;8.85;57.76;99507.78;5066927;28;20249;-66
2023/03/31 03:13:01;;;;;;;5.93;5.43;;;;;;;8.89;58.39;99520.50;5051560;28;20274;-67
2023/03/31 03:15:33;;;;;;;5.63;5.00;;;;;;;8.95;57.54;99518.94;5051827;28;20238;-67
2023/03/31 03:18:00;;;;;;;5.87;5.13;;;;;;;8.96;56.97;99517.91;5051514;28;20192;-67
2023/03/31 03:20:27;;;;;;;5.27;4.87;;;;;;;8.98;57.67;99529.13;5051281;28;20220;-67
2023/03/31 03:22:54;;;;;;;6.97;5.37;;;;;;;9.00;56.23;99532.44;5051754;28;20192;-67
2023/03/31 03:25:21;;;;;;;5.67;5.17;;;;;;;8.89;57.51;99524.97;5057737;28;20195;-67
2023/03/31 03:27:47;;;;;;;7.67;6.87;;;;;;;8.88;56.97;99531.28;5071920;28;20231;-67
2023/03/31 03:30:14;;;;;;;5.03;4.73;;;;;;;8.89;57.78;99540.84;5070715;28;20715;-66
2023/03/31 03:32:42;;;;;;;5.60;5.10;;;;;;;8.86;57.62;99530.66;5071903;28;20552;-66
2023/03/31 03:35:10;;;;;;;5.20;4.80;;;;;;;8.86;57.39;99535.94;5071067;28;20253;-67
2023/03/31 03:37:37;;;;;;;7.13;5.27;;;;;;;8.80;57.72;99534.84;5071606;28;20202;-66
2023/03/31 03:40:05;;;;;;;6.27;5.70;;;;;;;8.70;58.09;99533.47;5059089;28;20613;-66
2023/03/31 03:42:32;;;;;;;6.73;5.40;;;;;;;8.64;58.79;99535.03;5053265;28;20216;-66
2023/03/31 03:45:00;;;;;;;7.57;6.30;;;;;;;8.73;58.88;99535.75;5067270;28;20188;-66
2023/03/31 03:47:26;;;;;;;15.97;6.60;;;;;;;8.81;58.69;99538.28;5071445;28;20286;-67
2023/03/31 03:49:55;;;;;;;10.97;5.90;;;;;;;8.84;57.55;99537.94;5073297;28;20245;-66
2023/03/31 03:52:22;;;;;;;15.70;6.53;;;;;;;8.84;57.93;99528.19;5075321;28;20196;-66
2023/03/31 03:54:49;;;;;;;8.07;5.70;;;;;;;8.88;57.79;99518.03;5075124;28;20656;-66
2023/03/31 03:57:15;;;;;;;10.63;5.60;;;;;;;8.88;56.84;99540.03;5074888;28;20198;-66
2023/03/31 03:59:42;;;;;;;14.77;6.33;;;;;;;8.85;56.75;99531.63;5075340;28;20192;-67
2023/03/31 04:02:09;;;;;;;8.03;7.00;;;;;;;8.74;57.14;99526.81;5075130;28;20621;-67
2023/03/31 04:04:36;;;;;;;22.13;6.13;;;;;;;8.74;57.36;99534.75;5075219;28;20200;-66
2023/03/31 04:07:04;;;;;;;10.73;7.03;;;;;;;8.78;56.87;99542.13;5074728;28;20241;-66
2023/03/31 04:09:31;;;;;;;10.90;7.57;;;;;;;8.76;56.52;99527.44;5074786;28;20664;-66
2023/03/31 04:11:58;;;;;;;17.57;6.83;;;;;;;8.76;57.41;99528.28;5071763;28;20193;-65
2023/03/31 04:14:24;;;;;;;30.23;8.03;;;;;;;8.78;57.60;99525.44;5072533;28;20240;-66
2023/03/31 04:16:55;;;;;;;11.47;7.13;;;;;;;8.87;57.19;99519.03;5074536;28;20283;-66
2023/03/31 04:19:24;;;;;;;7.37;6.60;;;;;;;8.88;56.63;99515.38;5075147;28;20242;-66
2023/03/31 04:21:57;;;;;;;11.40;7.83;;;;;;;8.86;56.07;99506.81;5074804;28;20387;-66
2023/03/31 04:24:31;;;;;;;11.20;7.63;;;;;;;8.93;56.39;99502.38;5074883;28;20566;-66
2023/03/31 04:26:59;;;;;;;10.23;6.73;;;;;;;8.75;56.63;99510.75;5074257;28;20308;-66
2023/03/31 04:29:26;;;;;;;9.90;7.27;;;;;;;8.82;55.92;99497.59;5074375;28;20241;-66
2023/03/31 04:31:57;;;;;;;9.80;7.80;;;;;;;8.75;57.06;99509.91;5074657;28;20196;-67
2023/03/31 04:34:25;;;;;;;13.70;8.27;;;;;;;8.78;56.20;99493.66;5074394;28;20184;-66
2023/03/31 04:36:54;;;;;;;11.43;8.67;;;;;;;8.68;56.67;99487.81;5074280;28;20275;-68
2023/03/31 04:39:25;;;;;;;13.10;7.87;;;;;;;8.82;56.76;99489.66;5074183;28;20199;-67
2023/03/31 04:41:54;;;;;;;13.77;7.83;;;;;;;8.97;55.61;99495.72;5072309;28;20815;-66
2023/03/31 04:44:20;;;;;;;11.00;8.10;;;;;;;9.10;55.92;99498.50;5055270;28;20244;-67
2023/03/31 04:46:47;;;;;;;12.60;8.10;;;;;;;9.19;55.48;99492.13;5066227;28;20329;-67
2023/03/31 04:49:14;;;;;;;16.47;8.00;;;;;;;9.28;55.13;99506.91;5074377;28;20245;-66
2023/03/31 04:51:41;;;;;;;15.83;9.27;;;;;;;9.30;55.17;99496.91;5074226;28;20265;-70
2023/03/31 04:54:07;;;;;;;13.27;8.60;;;;;;;9.41;54.24;99502.56;5073980;28;20226;-69
2023/03/31 04:56:34;;;;;;;18.30;8.50;;;;;;;9.38;53.77;99491.50;5074058;28;20273;-68
2023/03/31 04:59:03;;;;;;;15.80;8.10;;;;;;;9.43;53.62;99486.44;5073862;28;20196;-69
2023/03/31 05:01:32;;;;;;;18.27;7.80;;;;;;;9.43;53.52;99483.78;5073192;28;20307;-70
2023/03/31 05:03:59;;;;;;;12.67;7.20;;;;;;;9.54;53.66;99478.81;5073783;28;20196;-71
2023/03/31 05:06:26;;;;;;;20.10;9.10;;;;;;;9.60;52.99;99487.84;5073516;28;20202;-70
2023/03/31 05:08:52;;;;;;;42.37;11.47;;;;;;;9.67;52.76;99481.59;5073913;28;20192;-72
2023/03/31 05:11:19;;;;;;;45.87;14.00;;;;;;;9.81;52.69;99462.13;5073819;28;20251;-74
2023/03/31 05:13:46;;;;;;;28.87;14.77;;;;;;;9.86;52.59;99448.28;5066380;28;20196;-71
2023/03/31 05:16:15;;;;;;;29.47;13.77;;;;;;;9.94;51.71;99450.81;5071225;28;20230;-69
2023/03/31 05:18:42;;;;;;;18.67;9.10;;;;;;;9.97;51.56;99445.91;5071211;28;20197;-69
2023/03/31 05:21:13;;;;;;;70.30;11.10;;;;;;;10.07;51.72;99435.84;5072026;28;20696;-70
2023/03/31 05:23:40;;;;;;;43.10;8.97;;;;;;;10.16;51.55;99436.47;5072429;28;20219;-68
2023/03/31 05:26:07;;;;;;;27.57;9.50;;;;;;;10.26;50.95;99444.94;5071464;28;20200;-70
2023/03/31 05:28:34;;;;;;;27.97;9.47;;;;;;;10.37;51.12;99436.41;5073129;28;20196;-69
2023/03/31 05:31:01;;;;;;;20.27;8.33;;;;;;;10.37;50.42;99441.72;5073013;28;20184;-68
2023/03/31 05:33:30;;;;;;;9.23;6.37;;;;;;;10.35;50.32;99446.41;5072096;28;20196;-70
2023/03/31 05:35:58;;;;;;;6.93;6.27;;;;;;;10.41;50.55;99437.66;5073234;28;20197;-70
2023/03/31 05:38:27;;;;;;;33.63;8.00;;;;;;;10.47;50.51;99439.53;5073178;28;20196;-71
2023/03/31 05:40:54;;;;;;;14.07;6.37;;;;;;;10.49;49.86;99427.69;5061748;28;20201;-74
2023/03/31 05:43:21;;;;;;;10.93;7.00;;;;;;;10.52;49.81;99429.13;5067936;28;20229;-69
2023/03/31 05:45:48;;;;;;;8.87;7.27;;;;;;;10.54;49.70;99427.13;5071958;28;20243;-69
2023/03/31 05:48:15;;;;;;;13.00;6.63;;;;;;;10.55;49.43;99431.41;5072233;28;20693;-71
2023/03/31 05:50:43;;;;;;;11.20;9.13;;;;;;;10.55;49.09;99428.75;5072696;28;20194;-72
2023/03/31 05:53:10;;;;;;;23.70;9.60;;;;;;;10.66;48.70;99431.66;5069122;28;20205;-71
2023/03/31 05:55:37;;;;;;;31.87;14.00;;;;;;;10.75;49.63;99427.81;5071025;28;20190;-73
2023/03/31 05:58:04;;;;;;;27.60;11.40;;;;;;;10.53;49.14;99382.97;5071937;28;20190;-71
2023/03/31 06:00:31;;;;;;;37.33;15.70;;;;;;;10.86;48.86;99423.75;5072004;28;20203;-73
2023/03/31 06:02:58;;;;;;;24.53;11.30;;;;;;;10.90;49.21;99422.34;5071701;28;20707;-76
2023/03/31 06:05:25;;;;;;;29.90;10.07;;;;;;;10.99;50.16;99418.50;5065047;28;20188;-71
2023/03/31 06:07:53;;;;;;;16.43;8.23;;;;;;;11.13;50.46;99422.81;5070976;28;20187;-73
2023/03/31 06:10:20;;;;;;;51.17;9.90;;;;;;;11.17;48.70;99418.75;5072413;28;20201;-74
2023/03/31 06:12:47;;;;;;;16.30;8.40;;;;;;;11.21;47.94;99411.16;5070962;28;20299;-75
2023/03/31 06:15:14;;;;;;;41.60;11.47;;;;;;;11.22;47.55;99412.84;5059878;28;20256;-80
2023/03/31 06:17:41;;;;;;;69.00;14.50;;;;;;;11.28;47.24;99425.31;5055094;28;20195;-77
2023/03/31 06:20:08;;;;;;;63.27;15.40;;;;;;;11.32;47.38;99435.34;5092055;28;20213;-74
2023/03/31 06:22:35;;;;;;;60.30;13.13;;;;;;;11.39;47.32;99422.84;5091929;28;20630;-79
2023/03/31 06:25:04;;;;;;;28.00;9.73;;;;;;;11.52;46.73;99428.22;5088433;28;20184;-75
2023/03/31 06:27:30;;;;;;;29.30;8.50;;;;;;;11.51;46.25;99425.75;5070625;28;20228;-76
2023/03/31 06:29:57;;;;;;;36.47;8.43;;;;;;;11.56;46.03;99410.00;5072519;28;20209;-74
2023/03/31 06:32:24;;;;;;;84.87;13.67;;;;;;;11.62;46.23;99419.84;5071651;28;20202;-74
2023/03/31 06:34:51;;;;;;;15.17;8.47;;;;;;;11.68;45.52;99422.50;5072577;28;20194;-75
2023/03/31 06:37:18;;;;;;;11.47;6.73;;;;;;;11.78;45.11;99414.09;5065504;28;20691;-75
2023/03/31 06:39:44;;;;;;;21.20;9.60;;;;;;;11.87;46.75;99423.50;5051501;28;20191;-75
2023/03/31 06:42:15;;;;;;;59.27;13.67;;;;;;;12.00;47.32;99410.22;5052783;28;20719;-76
2023/03/31 06:44:42;;;;;;;33.47;11.77;;;;;;;12.16;48.11;99409.78;5056775;28;20222;-78
2023/03/31 06:47:08;;;;;;;38.13;13.40;;;;;;;12.29;48.28;99410.53;5069141;28;20252;-73
2023/03/31 06:49:35;;;;;;;30.63;12.30;;;;;;;12.45;47.08;99403.97;5070049;28;20204;-76
2023/03/31 06:52:02;;;;;;;39.47;12.10;;;;;;;12.56;46.70;99404.13;5072947;28;20669;-77
2023/03/31 06:54:29;;;;;;;22.53;11.03;;;;;;;12.73;46.10;99391.94;5066920;28;20277;-79
2023/03/31 06:56:56;;;;;;;32.80;11.57;;;;;;;12.88;45.68;99400.50;5069691;28;20199;-78
2023/03/31 06:59:24;;;;;;;26.87;11.10;;;;;;;13.12;45.86;99405.13;5073549;28;20260;-77
2023/03/31 07:01:51;;;;;;;27.80;10.93;;;;;;;13.27;46.24;99384.28;5074399;28;20277;-77
2023/03/31 07:04:17;;;;;;;32.70;11.37;;;;;;;13.55;45.97;99398.03;5074387;28;20245;-79
2023/03/31 07:06:44;;;;;;;26.37;9.60;;;;;;;13.74;46.16;99386.41;5071670;28;20690;-76
2023/03/31 07:09:11;;;;;;;28.47;11.37;;;;;;;13.99;45.89;99384.50;5073198;28;20199;-79
2023/03/31 07:11:37;;;;;;;34.93;12.80;;;;;;;14.18;45.35;99390.69;5065258;28;20195;-82
2023/03/31 07:14:04;;;;;;;28.63;13.03;;;;;;;14.45;43.80;99394.72;5067160;28;20207;-77
2023/03/31 07:16:32;;;;;;;25.60;13.33;;;;;;;14.52;43.38;99390.97;5069976;28;20653;-78
2023/03/31 07:19:03;;;;;;;32.37;14.63;;;;;;;15.06;42.83;99392.72;5066350;28;20215;-83
2023/03/31 07:21:30;;;;;;;22.43;10.40;;;;;;;15.49;41.43;99388.78;5066965;28;20227;-83
2023/03/31 07:23:57;;;;;;;24.23;12.60;;;;;;;16.06;39.57;99386.41;5065029;28;20196;-77
2023/03/31 07:26:24;;;;;;;25.47;12.60;;;;;;;16.34;38.77;99398.06;5071389;28;20661;-80
2023/03/31 07:28:55;;;;;;;33.57;12.70;;;;;;;16.68;38.57;99394.50;5081272;28;20191;-79
2023/03/31 07:31:22;;;;;;;34.83;15.10;;;;;;;17.02;37.72;99390.09;5081911;28;20184;-82
2023/03/31 07:33:50;;;;;;;27.60;12.70;;;;;;;17.39;36.91;99392.09;5079806;28;20207;-78
2023/03/31 07:36:17;;;;;;;18.47;11.13;;;;;;;17.54;36.22;99391.56;5077871;28;20194;-77
2023/03/31 07:38:47;;;;;;;25.20;10.87;;;;;;;17.66;35.04;99403.06;5074041;28;20633;-76
2023/03/31 07:41:17;;;;;;;24.93;11.07;;;;;;;18.17;35.43;99408.19;5060733;28;20199;-77
2023/03/31 07:43:44;;;;;;;20.47;11.23;;;;;;;18.59;33.62;99404.75;5064628;28;20276;-76
2023/03/31 07:46:16;;;;;;;19.70;11.70;;;;;;;18.91;33.32;99404.91;5069023;28;20230;-76
2023/03/31 07:48:45;;;;;;;36.43;12.10;;;;;;;19.30;32.53;99390.25;5069470;28;20206;-76
2023/03/31 07:51:13;;;;;;;33.67;11.93;;;;;;;19.71;32.27;99400.34;5080888;28;20213;-76
2023/03/31 07:53:40;;;;;;;17.83;10.83;;;;;;;19.90;31.10;99393.50;5072847;28;20681;-77
2023/03/31 07:56:07;;;;;;;116.97;19.13;;;;;;;20.14;31.37;99386.69;5071710;28;20198;-76
2023/03/31 07:58:34;;;;;;;23.53;11.53;;;;;;;20.32;30.85;99383.53;5081198;28;20195;-79
2023/03/31 08:01:01;;;;;;;13.70;9.47;;;;;;;20.57;34.17;99366.69;5079743;28;20196;-68
2023/03/31 08:03:28;;;;;;;26.53;10.57;;;;;;;20.94;30.88;99376.28;5078305;28;20293;-75
2023/03/31 08:05:55;;;;;;;25.40;12.37;;;;;;;21.26;29.89;99379.59;5080081;28;20180;-77
2023/03/31 08:08:24;;;;;;;19.90;10.27;;;;;;;21.41;32.93;99366.13;5080365;28;20200;-75
2023/03/31 08:10:50;;;;;;;31.10;11.47;;;;;;;21.58;30.94;99358.56;5078766;28;20685;-76
2023/03/31 08:13:17;;;;;;;19.10;9.80;;;;;;;21.68;30.89;99339.63;5076526;28;20455;-73
2023/03/31 08:15:45;;;;;;;17.27;10.57;;;;;;;22.31;33.55;99336.31;5079126;28;20199;-74
2023/03/31 08:18:12;;;;;;;19.37;9.70;;;;;;;22.61;30.29;99329.97;5077418;28;20203;-74
2023/03/31 08:20:39;;;;;;;17.70;11.07;;;;;;;22.75;27.43;99337.22;5077436;28;20665;-74
2023/03/31 08:23:10;;;;;;;19.63;10.67;;;;;;;23.10;30.24;99320.78;5077840;28;20310;-73
2023/03/31 08:25:38;;;;;;;18.33;10.80;;;;;;;23.30;28.46;99319.84;5077213;28;20598;-73
2023/03/31 08:28:05;;;;;;;26.00;11.50;;;;;;;23.74;29.45;99313.25;5076283;28;20297;-74
2023/03/31 08:30:32;;;;;;;24.43;11.90;;;;;;;23.77;26.33;99309.94;5076870;28;20579;-72
2023/03/31 08:32:59;;;;;;;19.33;11.00;;;;;;;24.20;27.63;99305.44;5076965;28;20196;-74
2023/03/31 08:35:26;;;;;;;25.87;10.47;;;;;;;24.67;28.35;99281.00;5074358;28;20640;-72
2023/03/31 08:37:53;;;;;;;13.63;8.90;;;;;;;24.77;26.06;99278.94;5073097;28;20203;-72
2023/03/31 08:40:22;;;;;;;15.73;9.10;;;;;;;24.90;25.84;99297.25;5074183;28;20192;-67
2023/03/31 08:42:54;;;;;;;25.33;7.83;;;;;;;25.11;27.00;99269.75;5068428;28;20255;-71
2023/03/31 08:45:24;;;;;;;32.83;10.03;;;;;;;24.68;31.11;99283.44;5057336;28;20237;-77
2023/03/31 08:47:58;;;;;;;17.27;9.20;;;;;;;24.77;26.54;99254.50;5056366;28;20202;-75
2023/03/31 08:50:28;;;;;;;14.30;9.37;;;;;;;25.40;29.20;99256.81;5074223;28;20195;-72
2023/03/31 08:53:02;;;;;;;17.63;8.40;;;;;;;26.00;27.60;99272.06;5073929;28;20226;-73
2023/03/31 08:55:43;;;;;;;14.93;6.97;;;;;;;26.39;25.44;99265.00;5073025;28;20184;-74
2023/03/31 08:58:29;;;;;;;18.57;6.30;;;;;;;25.99;25.68;99254.09;5073645;28;20611;-72
2023/03/31 09:01:03;;;;;;;49.10;7.37;;;;;;;25.07;26.77;99236.13;5070881;28;20202;-72
2023/03/31 09:03:36;;;;;;;9.47;5.40;;;;;;;25.05;27.38;99211.94;5053734;28;20230;-72
2023/03/31 09:06:06;;;;;;;12.33;5.93;;;;;;;25.28;27.41;99221.09;5066884;28;20188;-70
2023/03/31 09:08:36;;;;;;;13.63;6.10;;;;;;;25.45;26.63;99221.34;5072873;28;20191;-72
2023/03/31 09:11:13;;;;;;;12.70;4.53;;;;;;;25.17;27.57;99209.56;5071130;28;20245;-73
2023/03/31 09:13:54;;;;;;;10.17;4.30;;;;;;;24.74;27.86;99198.03;5054460;28;20222;-73
2023/03/31 09:16:26;;;;;;;14.80;4.50;;;;;;;24.56;28.16;99198.81;5053672;28;20199;-73
2023/03/31 09:18:59;;;;;;;7.30;3.43;;;;;;;24.85;28.73;99191.34;5053287;28;20188;-72
2023/03/31 09:21:29;;;;;;;9.87;3.80;;;;;;;24.88;27.69;99196.16;5057492;28;20196;-71
2023/03/31 09:24:08;;;;;;;6.03;3.77;;;;;;;24.96;28.58;99190.06;5057565;28;20200;-78
2023/03/31 09:26:39;;;;;;;10.10;3.73;;;;;;;25.02;27.52;99183.44;5071803;28;20231;-76
2023/03/31 09:29:17;;;;;;;4.13;3.20;;;;;;;25.11;28.22;99182.75;5070507;28;20195;-75
2023/03/31 09:31:47;;;;;;;3.97;2.90;;;;;;;25.08;28.03;99177.91;5069691;28;20211;-76
2023/03/31 09:34:17;;;;;;;9.47;3.80;;;;;;;24.98;27.61;99167.22;5070647;28;20222;-76
2023/03/31 09:36:44;;;;;;;5.43;3.37;;;;;;;24.44;28.02;99168.56;5071094;28;20191;-77
2023/03/31 09:39:14;;;;;;;11.50;3.43;;;;;;;24.22;28.91;99160.19;5072462;28;20201;-75
2023/03/31 09:41:44;;;;;;;18.30;5.73;;;;;;;23.83;29.46;99159.59;5072576;28;20665;-75
2023/03/31 09:44:26;;;;;;;10.20;3.63;;;;;;;23.32;30.44;99139.53;5054139;28;20202;-75
2023/03/31 09:46:54;;;;;;;25.00;5.40;;;;;;;23.39;30.09;99155.47;5068438;28;20713;-76
2023/03/31 09:49:26;;;;;;;19.60;4.83;;;;;;;23.39;32.67;99145.44;5069228;28;20217;-76
2023/03/31 09:52:04;;;;;;;16.03;4.77;;;;;;;23.85;30.76;99141.09;5072073;28;20670;-76
2023/03/31 09:54:37;;;;;;;6.90;3.67;;;;;;;24.12;29.43;99145.94;5072561;28;20184;-75
2023/03/31 09:57:15;;;;;;;4.17;2.90;;;;;;;23.88;29.37;99131.56;5072704;28;20187;-77
2023/03/31 09:59:45;;;;;;;3.90;2.80;;;;;;;24.02;29.40;99127.88;5071658;28;20194;-77
2023/03/31 10:02:34;;;;;;;10.47;3.30;;;;;;;24.33;29.90;99133.69;5072659;28;20230;-78
2023/03/31 10:05:01;;;;;;;3.90;3.50;;;;;;;24.68;30.08;99131.31;5072318;28;20726;-78
2023/03/31 10:07:28;;;;;;;8.90;3.80;;;;;;;24.93;29.20;99117.28;5072679;28;20233;-79
2023/03/31 10:09:56;;;;;;;8.97;4.30;;;;;;;25.11;28.85;99117.53;5066115;28;20195;-74
2023/03/31 10:12:27;;;;;;;24.37;4.30;;;;;;;25.19;28.34;99108.69;5070361;28;20222;-75
2023/03/31 10:15:11;;;;;;;12.13;4.53;;;;;;;25.27;27.95;99099.81;5070968;28;20190;-71
2023/03/31 10:17:47;;;;;;;4.40;3.37;;;;;;;25.00;27.98;99109.53;5072641;28;20589;-72
2023/03/31 10:20:32;;;;;;;11.77;4.13;;;;;;;24.93;27.97;99102.88;5072336;28;20199;-74
2023/03/31 10:23:06;;;;;;;31.83;6.43;;;;;;;24.98;28.77;99106.31;5069985;28;20275;-76
2023/03/31 10:25:34;;;;;;;6.00;4.03;;;;;;;24.75;28.89;99096.38;5070988;28;20195;-82
2023/03/31 10:28:02;;;;;;;11.20;4.50;;;;;;;24.54;28.61;99091.56;5072326;28;20262;-78
2023/03/31 10:30:37;;;;;;;11.90;3.80;;;;;;;24.52;29.58;99089.16;5072049;28;20214;-80
2023/03/31 10:33:14;;;;;;;10.37;4.17;;;;;;;24.74;29.69;99083.91;5072612;28;20264;-83
2023/03/31 10:35:41;;;;;;;5.37;3.67;;;;;;;24.92;27.74;99084.97;5058518;28;20710;-79
2023/03/31 10:38:12;;;;;;;7.73;4.73;;;;;;;25.16;28.03;99082.09;5067995;28;20194;-75
2023/03/31 10:40:42;;;;;;;14.13;4.60;;;;;;;25.11;27.58;99079.47;5051985;28;20261;-71
2023/03/31 10:43:15;;;;;;;5.30;4.23;;;;;;;24.82;28.40;99061.50;5052125;28;20690;-75
2023/03/31 10:45:48;;;;;;;12.90;7.03;;;;;;;24.83;28.55;99065.81;5058368;28;20188;-72
2023/03/31 10:48:20;;;;;;;10.17;4.93;;;;;;;25.26;28.83;99065.56;5071650;28;20192;-74
2023/03/31 10:50:48;;;;;;;22.40;5.37;;;;;;;25.56;27.49;99051.41;5071894;28;20192;-75
2023/03/31 10:53:17;;;;;;;9.97;4.03;;;;;;;25.56;27.10;99045.97;5071770;28;20227;-72
2023/03/31 10:55:59;;;;;;;28.50;5.43;;;;;;;25.68;27.99;99043.53;5071832;28;20200;-69
2023/03/31 10:58:42;;;;;;;13.40;4.83;;;;;;;25.48;26.99;99031.13;5070784;28;20591;-74
2023/03/31 11:01:21;;;;;;;7.20;4.10;;;;;;;25.51;28.44;99022.38;5070208;28;20192;-76
2023/03/31 11:03:59;;;;;;;56.70;9.20;;;;;;;25.26;27.31;99027.50;5051074;28;20646;-73
2023/03/31 11:06:33;;;;;;;36.10;7.53;;;;;;;25.04;27.76;99029.00;5058657;28;20671;-76
2023/03/31 11:09:16;;;;;;;14.23;4.40;;;;;;;24.81;27.99;99016.41;5068203;28;20183;-75
2023/03/31 11:12:01;;;;;;;7.50;4.30;;;;;;;24.84;28.27;98999.50;5068535;28;20208;-77
2023/03/31 11:14:40;;;;;;;6.47;3.93;;;;;;;25.16;28.23;99000.53;5071251;28;20211;-72
2023/03/31 11:17:20;;;;;;;12.83;4.37;;;;;;;25.22;28.22;99000.13;5070035;28;20283;-74
2023/03/31 11:19:57;;;;;;;20.77;4.80;;;;;;;24.95;27.66;98990.06;5069269;28;20198;-77
2023/03/31 11:22:31;;;;;;;9.43;3.87;;;;;;;24.65;27.85;98990.63;5068174;28;20642;-75
2023/03/31 11:25:22;;;;;;;41.80;7.10;;;;;;;24.15;28.29;98983.31;5068892;28;20631;-75
2023/03/31 11:28:18;;;;;;;8.63;4.20;;;;;;;24.10;28.00;98977.97;5070841;28;20302;-76
2023/03/31 11:30:51;;;;;;;6.63;4.30;;;;;;;24.28;28.57;98973.59;5059929;28;20203;-75
2023/03/31 11:33:48;;;;;;;4.47;4.03;;;;;;;24.39;27.96;98961.47;5050463;28;20699;-77
2023/03/31 11:36:27;;;;;;;4.23;3.90;;;;;;;24.32;28.39;98936.63;5068719;28;20212;-75
2023/03/31 11:39:09;;;;;;;6.03;3.87;;;;;;;24.49;28.02;98943.09;5069001;28;20190;-74
2023/03/31 11:41:40;;;;;;;6.70;4.30;;;;;;;24.53;28.06;98946.00;5068927;28;20190;-75
2023/03/31 11:44:11;;;;;;;8.20;3.70;;;;;;;24.95;27.66;98943.84;5059181;28;20208;-74
2023/03/31 11:46:43;;;;;;;6.77;3.90;;;;;;;25.32;26.85;98950.19;5050599;28;20189;-76